Time;durP1;ratioP1;P1;durP2;ratioP2;P2;SDS_P1;SDS_P2;PMS_P1;PMS_P2;Temp;Humidity;BMP_temperature;BMP_pressure;BME280_temperature;BME280_humidity;BME280_pressure;Samples;Min_cycle;Max_cycle;Signal;HPM_P1;HPM_P2
2021/11/05 00:00:11;;;;;;;27.22;18.62;;;;;;;10.38;100.00;99606.32;1737633;81;21055;-62
2021/11/05 00:02:42;;;;;;;27.65;16.77;;;;;;;10.39;100.00;99595.57;1739550;81;21004;-62
2021/11/05 00:05:09;;;;;;;29.42;18.82;;;;;;;10.40;100.00;99592.50;1737418;81;21141;-65
2021/11/05 00:07:36;;;;;;;26.90;18.37;;;;;;;10.43;100.00;99587.72;1738270;81;21016;-63
2021/11/05 00:10:04;;;;;;;27.55;18.00;;;;;;;10.44;100.00;99587.96;1738522;81;21633;-62
2021/11/05 00:12:30;;;;;;;29.37;18.73;;;;;;;10.47;100.00;99583.22;1740395;81;21539;-62
2021/11/05 00:14:57;;;;;;;29.70;19.27;;;;;;;10.49;100.00;99585.69;1737152;81;21530;-62
2021/11/05 00:17:25;;;;;;;30.97;18.45;;;;;;;10.50;100.00;99580.97;1737908;81;21524;-65
2021/11/05 00:19:51;;;;;;;26.87;18.37;;;;;;;10.51;100.00;99577.09;1740440;81;21059;-62
2021/11/05 00:22:18;;;;;;;30.85;17.80;;;;;;;10.52;100.00;99577.34;1738940;81;20988;-64
2021/11/05 00:24:44;;;;;;;27.48;19.10;;;;;;;10.53;100.00;99566.55;1733548;81;21032;-63
2021/11/05 00:27:10;;;;;;;26.68;18.15;;;;;;;10.53;100.00;99562.42;1740445;81;22129;-64
2021/11/05 00:29:36;;;;;;;27.85;18.87;;;;;;;10.54;100.00;99561.30;1708919;81;21084;-66
2021/11/05 00:32:06;;;;;;;25.45;17.85;;;;;;;10.57;100.00;99562.04;1738018;81;21040;-63
2021/11/05 00:34:32;;;;;;;28.87;19.32;;;;;;;10.58;100.00;99564.47;1737487;81;21063;-63
2021/11/05 00:36:59;;;;;;;28.23;18.45;;;;;;;10.64;100.00;99584.44;1738839;81;21007;-63
2021/11/05 00:39:25;;;;;;;30.90;19.32;;;;;;;10.64;100.00;99585.81;1736432;81;21527;-63
2021/11/05 00:41:51;;;;;;;29.50;18.98;;;;;;;10.64;100.00;99592.70;1706699;81;21060;-63
2021/11/05 00:44:17;;;;;;;26.62;18.52;;;;;;;10.65;100.00;99599.83;1739101;81;21071;-62
2021/11/05 00:46:44;;;;;;;29.65;20.08;;;;;;;10.65;100.00;99584.67;1739786;81;21499;-61
2021/11/05 00:49:11;;;;;;;26.57;17.90;;;;;;;10.68;100.00;99586.00;1737368;81;21047;-63
2021/11/05 00:51:38;;;;;;;27.87;18.50;;;;;;;10.69;100.00;99587.61;1739186;81;21457;-64
2021/11/05 00:54:08;;;;;;;27.52;18.60;;;;;;;10.69;100.00;99582.92;1739411;81;21125;-64
2021/11/05 00:56:35;;;;;;;27.37;17.48;;;;;;;10.75;100.00;99585.53;1737705;81;21028;-63
2021/11/05 00:59:02;;;;;;;26.37;18.40;;;;;;;10.75;100.00;99588.28;1738499;81;21595;-63
2021/11/05 01:01:28;;;;;;;24.80;17.12;;;;;;;10.77;100.00;99592.89;1740455;81;21540;-63
2021/11/05 01:03:54;;;;;;;26.20;17.98;;;;;;;10.79;100.00;99591.45;1713920;81;21036;-63
2021/11/05 01:06:22;;;;;;;25.37;17.25;;;;;;;10.83;100.00;99590.25;1735517;81;21019;-63
2021/11/05 01:08:49;;;;;;;29.87;18.67;;;;;;;10.82;100.00;99583.09;1733886;81;21004;-63
2021/11/05 01:11:15;;;;;;;23.98;17.05;;;;;;;10.80;100.00;99572.39;1735450;81;21041;-63
2021/11/05 01:13:42;;;;;;;32.67;17.95;;;;;;;10.82;100.00;99571.52;1733343;81;21051;-63
2021/11/05 01:16:10;;;;;;;27.55;18.05;;;;;;;10.86;100.00;99567.55;1740573;81;21572;-63
2021/11/05 01:18:38;;;;;;;24.45;16.57;;;;;;;10.91;100.00;99567.96;1738564;81;21165;-63
2021/11/05 01:21:05;;;;;;;29.90;17.48;;;;;;;10.93;100.00;99567.91;1737627;81;21043;-62
2021/11/05 01:23:31;;;;;;;27.00;17.20;;;;;;;10.97;100.00;99567.25;1736979;81;21047;-64
2021/11/05 01:25:58;;;;;;;25.27;18.10;;;;;;;10.98;100.00;99558.66;1707038;81;21511;-63
2021/11/05 01:28:24;;;;;;;30.23;17.95;;;;;;;10.98;100.00;99566.11;1739655;81;21034;-63
2021/11/05 01:30:51;;;;;;;24.18;17.32;;;;;;;10.97;100.00;99565.29;1706627;81;21056;-63
2021/11/05 01:33:19;;;;;;;27.77;18.00;;;;;;;10.99;100.00;99565.78;1705470;82;21034;-63
2021/11/05 01:35:48;;;;;;;26.12;18.10;;;;;;;11.01;100.00;99568.22;1740082;81;21002;-64
2021/11/05 01:38:14;;;;;;;30.02;18.20;;;;;;;11.02;100.00;99562.38;1740279;81;21019;-62
2021/11/05 01:40:42;;;;;;;25.90;18.07;;;;;;;11.06;100.00;99570.82;1684490;81;21500;-63
2021/11/05 01:43:09;;;;;;;28.87;17.82;;;;;;;11.10;100.00;99570.44;1740780;81;21135;-63
2021/11/05 01:45:36;;;;;;;29.77;18.75;;;;;;;11.11;100.00;99561.02;1708704;81;20983;-63
2021/11/05 01:48:04;;;;;;;26.40;18.67;;;;;;;11.11;100.00;99557.44;1737863;81;20987;-63
2021/11/05 01:50:30;;;;;;;27.62;18.25;;;;;;;11.13;100.00;99560.13;1740345;81;21012;-62
2021/11/05 01:52:59;;;;;;;29.18;19.55;;;;;;;11.13;100.00;99568.97;1739729;81;21016;-64
2021/11/05 01:55:25;;;;;;;29.87;18.67;;;;;;;11.13;100.00;99571.16;1739808;81;21981;-63
2021/11/05 01:57:52;;;;;;;30.90;20.32;;;;;;;11.16;100.00;99567.75;1706505;81;21106;-62
2021/11/05 02:00:23;;;;;;;27.52;18.65;;;;;;;11.19;100.00;99562.97;1739116;81;21009;-63
2021/11/05 02:02:50;;;;;;;31.15;18.57;;;;;;;11.22;100.00;99566.22;1762678;80;21044;-63
2021/11/05 02:05:17;;;;;;;29.82;19.23;;;;;;;11.23;100.00;99565.08;1730724;81;21004;-63
2021/11/05 02:07:47;;;;;;;36.08;19.85;;;;;;;11.25;100.00;99554.53;1745359;81;21783;-64
2021/11/05 02:10:14;;;;;;;27.58;18.73;;;;;;;11.26;100.00;99557.55;1739126;80;20984;-62
2021/11/05 02:12:41;;;;;;;28.57;18.62;;;;;;;11.28;100.00;99557.46;1716637;81;21281;-64
2021/11/05 02:15:09;;;;;;;30.12;18.85;;;;;;;11.31;100.00;99543.61;1745191;81;21630;-62
2021/11/05 02:17:36;;;;;;;29.63;19.10;;;;;;;11.33;100.00;99555.11;1743596;81;21019;-62
2021/11/05 02:20:05;;;;;;;29.77;18.27;;;;;;;11.35;100.00;99560.30;1743844;81;21132;-63
2021/11/05 02:22:32;;;;;;;27.82;18.00;;;;;;;11.34;100.00;99560.88;1728760;82;21043;-63
2021/11/05 02:24:58;;;;;;;28.15;17.75;;;;;;;11.33;100.00;99570.27;1741971;81;21574;-63
2021/11/05 02:27:24;;;;;;;26.07;17.42;;;;;;;11.29;100.00;99564.59;1743752;81;21026;-63
2021/11/05 02:29:51;;;;;;;26.10;17.17;;;;;;;11.28;100.00;99562.16;1722847;81;21003;-63
2021/11/05 02:32:17;;;;;;;27.77;18.67;;;;;;;11.29;100.00;99574.24;1716319;81;21928;-63
2021/11/05 02:34:43;;;;;;;27.95;18.48;;;;;;;11.29;100.00;99574.24;1729396;81;21540;-63
2021/11/05 02:37:10;;;;;;;30.15;17.48;;;;;;;11.31;100.00;99571.19;1723122;82;21020;-63
2021/11/05 02:39:37;;;;;;;29.02;18.60;;;;;;;11.34;100.00;99577.99;1696316;82;21016;-65
2021/11/05 02:42:05;;;;;;;31.77;19.10;;;;;;;11.35;100.00;99589.25;1721922;82;21481;-64
2021/11/05 02:44:31;;;;;;;27.65;18.35;;;;;;;11.35;100.00;99581.80;1723095;82;21123;-64
2021/11/05 02:46:57;;;;;;;28.00;18.73;;;;;;;11.38;100.00;99576.22;1728119;82;21333;-63
2021/11/05 02:49:24;;;;;;;27.48;18.90;;;;;;;11.39;100.00;99577.27;1728194;82;20999;-63
2021/11/05 02:51:51;;;;;;;26.02;17.40;;;;;;;11.39;100.00;99573.70;1723115;82;21040;-62
2021/11/05 02:54:17;;;;;;;28.55;17.67;;;;;;;11.38;100.00;99575.63;1721586;82;21004;-62
2021/11/05 02:56:43;;;;;;;25.55;18.62;;;;;;;11.39;100.00;99575.89;1723062;82;21047;-64
2021/11/05 02:59:10;;;;;;;25.55;18.15;;;;;;;11.40;100.00;99575.30;1726459;82;21549;-63
2021/11/05 03:01:36;;;;;;;26.82;19.67;;;;;;;11.38;100.00;99570.11;1695089;82;21013;-63
2021/11/05 03:04:07;;;;;;;29.07;18.75;;;;;;;11.38;100.00;99572.88;1695256;82;21013;-63
2021/11/05 03:06:38;;;;;;;32.05;20.17;;;;;;;11.40;100.00;99573.92;1698406;82;21526;-63
2021/11/05 03:09:13;;;;;;;32.75;19.02;;;;;;;11.41;100.00;99579.70;1723888;82;21109;-63
2021/11/05 03:11:43;;;;;;;27.37;18.32;;;;;;;11.40;100.00;99577.50;1725066;82;21048;-63
2021/11/05 03:14:10;;;;;;;34.65;19.05;;;;;;;11.41;100.00;99575.57;1722876;82;21025;-63
2021/11/05 03:16:36;;;;;;;28.90;18.82;;;;;;;11.42;100.00;99575.80;1725843;82;20989;-63
2021/11/05 03:19:03;;;;;;;27.75;19.60;;;;;;;11.42;100.00;99573.86;1725171;82;21056;-63
2021/11/05 03:21:29;;;;;;;35.75;19.90;;;;;;;11.43;100.00;99556.16;1723277;82;21113;-63
2021/11/05 03:23:58;;;;;;;26.80;19.07;;;;;;;11.44;100.00;99565.26;1726033;82;21076;-62
2021/11/05 03:26:25;;;;;;;26.80;18.62;;;;;;;11.46;100.00;99557.48;1725477;82;21012;-62
2021/11/05 03:28:52;;;;;;;29.00;20.10;;;;;;;11.47;100.00;99552.75;1697901;82;21048;-62
2021/11/05 03:31:18;;;;;;;24.50;17.80;;;;;;;11.48;100.00;99546.11;1727958;82;21039;-61
2021/11/05 03:33:45;;;;;;;25.27;18.05;;;;;;;11.46;100.00;99550.58;1727465;82;21517;-63
2021/11/05 03:36:11;;;;;;;26.62;17.37;;;;;;;11.48;100.00;99553.80;1723269;82;21036;-60
2021/11/05 03:38:37;;;;;;;26.52;17.87;;;;;;;11.50;100.00;99551.53;1725304;82;21032;-62
2021/11/05 03:41:03;;;;;;;24.77;16.80;;;;;;;11.49;100.00;99548.54;1696374;82;21029;-62
2021/11/05 03:43:30;;;;;;;26.60;18.75;;;;;;;11.47;100.00;99559.08;1691338;82;21032;-62
2021/11/05 03:45:56;;;;;;;28.20;17.50;;;;;;;11.50;100.00;99559.81;1725767;82;21209;-61
2021/11/05 03:48:23;;;;;;;28.47;18.52;;;;;;;11.51;100.00;99568.91;1725136;82;21020;-63
2021/11/05 03:50:49;;;;;;;28.83;17.30;;;;;;;11.53;100.00;99568.02;1701334;82;21561;-62
2021/11/05 03:53:16;;;;;;;31.00;19.95;;;;;;;11.51;100.00;99568.91;1725942;82;21067;-63
2021/11/05 03:55:42;;;;;;;29.48;18.62;;;;;;;11.50;100.00;99560.40;1727358;82;21508;-62
2021/11/05 03:58:08;;;;;;;27.65;18.35;;;;;;;11.49;100.00;99562.34;1720352;82;21123;-62
2021/11/05 04:00:35;;;;;;;29.30;19.12;;;;;;;11.51;100.00;99560.07;1730249;82;21556;-62
2021/11/05 04:03:02;;;;;;;29.60;18.10;;;;;;;11.54;100.00;99555.84;1727877;82;20992;-62
2021/11/05 04:05:28;;;;;;;35.33;21.00;;;;;;;11.56;100.00;99560.47;1718184;82;22355;-62
2021/11/05 04:07:55;;;;;;;27.82;18.15;;;;;;;11.57;100.00;99564.84;1729604;82;21039;-63
2021/11/05 04:10:22;;;;;;;35.78;21.15;;;;;;;11.58;100.00;99571.17;1724429;82;21137;-62
2021/11/05 04:12:50;;;;;;;34.27;21.50;;;;;;;11.60;100.00;99566.94;1725705;82;20999;-63
2021/11/05 04:15:17;;;;;;;37.63;23.05;;;;;;;11.62;100.00;99562.47;1724827;82;21780;-63
2021/11/05 04:17:45;;;;;;;33.05;22.22;;;;;;;11.63;100.00;99571.83;1722398;82;20973;-63
2021/11/05 04:20:11;;;;;;;34.83;22.55;;;;;;;11.65;100.00;99572.29;1730215;82;20993;-65
2021/11/05 04:22:39;;;;;;;32.78;21.68;;;;;;;11.66;100.00;99567.03;1696912;82;22058;-62
2021/11/05 04:25:07;;;;;;;36.77;22.02;;;;;;;11.70;100.00;99567.20;1723840;82;21072;-63
2021/11/05 04:27:35;;;;;;;36.50;21.12;;;;;;;11.71;100.00;99557.77;1723492;82;21008;-63
2021/11/05 04:30:04;;;;;;;33.33;21.00;;;;;;;11.75;100.00;99560.69;1722858;82;21507;-63
2021/11/05 04:32:30;;;;;;;36.25;21.12;;;;;;;11.77;100.00;99557.04;1726893;82;22177;-62
2021/11/05 04:34:57;;;;;;;37.03;21.27;;;;;;;11.78;100.00;99558.65;1723957;80;21053;-63
2021/11/05 04:37:23;;;;;;;34.48;21.23;;;;;;;11.78;100.00;99561.41;1754015;81;20902;-63
2021/11/05 04:39:50;;;;;;;36.60;22.62;;;;;;;11.80;100.00;99568.80;1730464;82;21484;-63
2021/11/05 04:42:16;;;;;;;33.63;21.70;;;;;;;11.81;100.00;99560.75;1727571;82;21091;-63
2021/11/05 04:44:42;;;;;;;40.85;23.27;;;;;;;11.83;100.00;99562.62;1726054;82;22063;-63
2021/11/05 04:47:08;;;;;;;37.55;22.05;;;;;;;11.86;100.00;99561.95;1694218;82;21149;-63
2021/11/05 04:49:35;;;;;;;35.78;21.90;;;;;;;11.89;100.00;99559.92;1725605;82;21000;-63
2021/11/05 04:52:01;;;;;;;40.17;23.52;;;;;;;11.92;100.00;99551.56;1696087;82;21109;-61
2021/11/05 04:54:28;;;;;;;40.73;23.57;;;;;;;11.92;100.00;99552.36;1694730;82;21059;-63
2021/11/05 04:56:54;;;;;;;40.78;24.30;;;;;;;11.95;100.00;99554.23;1723196;82;21000;-62
2021/11/05 04:59:21;;;;;;;36.08;22.50;;;;;;;11.96;100.00;99565.53;1723052;82;21126;-62
2021/11/05 05:01:48;;;;;;;37.80;22.02;;;;;;;11.98;100.00;99567.37;1723139;82;21083;-63
2021/11/05 05:04:14;;;;;;;40.52;24.27;;;;;;;11.99;100.00;99572.56;1723483;82;20984;-64
2021/11/05 05:06:41;;;;;;;38.95;22.35;;;;;;;12.00;100.00;99565.09;1728661;82;21136;-64
2021/11/05 05:09:07;;;;;;;40.63;21.87;;;;;;;12.03;100.00;99559.73;1727176;82;21016;-62
2021/11/05 05:11:33;;;;;;;40.30;24.05;;;;;;;12.04;100.00;99560.55;1723123;82;21133;-63
2021/11/05 05:14:00;;;;;;;38.63;23.60;;;;;;;12.07;100.00;99567.35;1722986;82;21465;-63
2021/11/05 05:16:27;;;;;;;41.70;25.45;;;;;;;12.06;100.00;99573.44;1725884;82;21458;-61
2021/11/05 05:18:53;;;;;;;43.65;25.23;;;;;;;12.04;100.00;99573.77;1694195;82;21032;-63
2021/11/05 05:21:19;;;;;;;37.85;24.10;;;;;;;12.04;100.00;99562.72;1725123;82;21516;-62
2021/11/05 05:23:45;;;;;;;43.00;25.35;;;;;;;12.05;100.00;99567.13;1696809;82;21168;-61
2021/11/05 05:26:12;;;;;;;43.35;25.55;;;;;;;12.08;100.00;99561.50;1694130;82;21465;-63
2021/11/05 05:28:40;;;;;;;42.93;25.77;;;;;;;12.09;100.00;99563.17;1721545;81;21064;-63
2021/11/05 05:31:07;;;;;;;46.13;25.77;;;;;;;12.12;100.00;99565.27;1729622;82;21029;-64
2021/11/05 05:33:36;;;;;;;46.55;25.60;;;;;;;12.13;100.00;99568.84;1694752;82;21059;-62
2021/11/05 05:36:05;;;;;;;44.18;25.45;;;;;;;12.14;100.00;99560.23;1728226;82;21481;-62
2021/11/05 05:38:32;;;;;;;41.88;25.23;;;;;;;12.19;100.00;99574.98;1723031;82;21056;-63
2021/11/05 05:40:59;;;;;;;48.83;26.00;;;;;;;12.20;100.00;99578.00;1698823;82;21039;-62
2021/11/05 05:43:26;;;;;;;38.63;24.55;;;;;;;12.23;100.00;99582.87;1727559;82;21034;-62
2021/11/05 05:45:53;;;;;;;37.03;22.22;;;;;;;12.24;100.00;99581.71;1723633;82;21033;-63
2021/11/05 05:48:20;;;;;;;43.58;24.25;;;;;;;12.24;100.00;99592.77;1722829;82;21175;-64
2021/11/05 05:50:47;;;;;;;46.95;23.90;;;;;;;12.26;100.00;99597.39;1725667;82;21644;-62
2021/11/05 05:53:13;;;;;;;44.55;25.30;;;;;;;12.28;100.00;99595.13;1700037;82;21176;-64
2021/11/05 05:55:44;;;;;;;46.18;27.22;;;;;;;12.32;100.00;99589.16;1725351;82;21492;-63
2021/11/05 05:58:10;;;;;;;52.15;28.23;;;;;;;12.37;100.00;99604.17;1697151;82;21056;-63
2021/11/05 06:00:37;;;;;;;61.68;28.83;;;;;;;12.42;100.00;99612.84;1723827;82;21117;-63
2021/11/05 06:03:05;;;;;;;48.83;28.27;;;;;;;12.43;100.00;99618.63;1720613;82;20973;-63
2021/11/05 06:05:32;;;;;;;49.85;26.07;;;;;;;12.44;100.00;99619.42;1726119;82;21553;-62
2021/11/05 06:07:59;;;;;;;38.50;23.27;;;;;;;12.46;100.00;99617.97;1695235;82;21048;-64
2021/11/05 06:10:26;;;;;;;38.92;23.83;;;;;;;12.49;100.00;99613.72;1723453;82;21048;-63
2021/11/05 06:12:53;;;;;;;45.40;25.23;;;;;;;12.51;100.00;99616.41;1725939;82;21099;-64
2021/11/05 06:15:21;;;;;;;44.38;25.35;;;;;;;12.52;100.00;99620.78;1724067;82;20994;-63
2021/11/05 06:17:48;;;;;;;35.80;23.85;;;;;;;12.54;100.00;99619.06;1726006;82;21480;-64
2021/11/05 06:20:14;;;;;;;50.03;24.95;;;;;;;12.56;100.00;99615.97;1723140;82;21088;-63
2021/11/05 06:22:41;;;;;;;42.67;24.25;;;;;;;12.58;100.00;99620.59;1739474;82;20991;-64
2021/11/05 06:25:08;;;;;;;43.02;24.12;;;;;;;12.61;100.00;99613.02;1753476;81;21836;-64
2021/11/05 06:27:35;;;;;;;50.88;25.40;;;;;;;12.64;100.00;99605.47;1729931;82;20985;-64
2021/11/05 06:30:02;;;;;;;44.30;24.90;;;;;;;12.67;100.00;99604.80;1728485;82;21048;-62
2021/11/05 06:32:29;;;;;;;42.55;24.80;;;;;;;12.70;100.00;99607.46;1723436;82;21071;-64
2021/11/05 06:34:56;;;;;;;40.58;24.80;;;;;;;12.73;100.00;99611.76;1729156;82;21040;-63
2021/11/05 06:37:23;;;;;;;42.38;25.75;;;;;;;12.76;100.00;99614.45;1706422;82;21206;-63
2021/11/05 06:39:49;;;;;;;46.42;25.62;;;;;;;12.76;100.00;99611.68;1742695;81;21129;-63
2021/11/05 06:42:20;;;;;;;42.10;24.50;;;;;;;12.76;100.00;99606.94;1715611;81;21090;-63
2021/11/05 06:44:45;;;;;;;57.35;25.35;;;;;;;12.79;100.00;99606.86;1741536;81;21063;-63
2021/11/05 06:47:11;;;;;;;46.85;24.63;;;;;;;12.81;100.00;99595.47;1731632;81;21020;-63
2021/11/05 06:49:37;;;;;;;50.65;26.57;;;;;;;12.84;100.00;99599.77;1704317;81;21058;-64
2021/11/05 06:52:04;;;;;;;46.85;27.02;;;;;;;12.87;100.00;99600.47;1731553;81;21086;-63
2021/11/05 06:54:31;;;;;;;50.55;27.07;;;;;;;12.91;100.00;99597.86;1731921;81;21551;-64
2021/11/05 06:56:57;;;;;;;42.78;25.75;;;;;;;12.90;100.00;99588.73;1704707;81;21038;-64
2021/11/05 06:59:23;;;;;;;44.30;25.25;;;;;;;12.95;100.00;99596.02;1731607;81;21038;-64
2021/11/05 07:01:50;;;;;;;46.23;25.55;;;;;;;13.00;100.00;99607.45;1709341;81;21103;-64
2021/11/05 07:04:17;;;;;;;60.83;29.85;;;;;;;13.01;100.00;99603.56;1735220;81;21487;-64
2021/11/05 07:06:46;;;;;;;42.88;26.20;;;;;;;13.00;100.00;99612.98;1733525;81;21026;-65
2021/11/05 07:09:14;;;;;;;54.48;25.35;;;;;;;13.03;100.00;99614.52;1733940;81;21594;-63
2021/11/05 07:11:42;;;;;;;51.80;25.68;;;;;;;13.03;100.00;99618.67;1734784;81;21074;-61
2021/11/05 07:14:09;;;;;;;47.78;27.42;;;;;;;13.08;100.00;99622.40;1706322;81;21795;-64
2021/11/05 07:16:36;;;;;;;53.68;27.52;;;;;;;13.10;100.00;99624.27;1709345;81;21028;-65
2021/11/05 07:19:05;;;;;;;51.40;27.87;;;;;;;13.12;100.00;99623.33;1735758;81;21007;-64
2021/11/05 07:21:32;;;;;;;48.42;28.17;;;;;;;13.14;100.00;99624.63;1758694;81;21011;-64
2021/11/05 07:24:02;;;;;;;56.73;28.15;;;;;;;13.18;100.00;99630.88;1756745;81;20999;-63
2021/11/05 07:26:34;;;;;;;43.78;25.72;;;;;;;13.20;100.00;99625.83;1757868;81;21531;-63
2021/11/05 07:29:02;;;;;;;50.58;26.55;;;;;;;13.19;100.00;99626.39;1759177;81;20943;-63
2021/11/05 07:31:29;;;;;;;54.20;28.95;;;;;;;13.20;100.00;99624.44;1743162;81;21324;-63
2021/11/05 07:33:56;;;;;;;50.17;28.20;;;;;;;13.21;100.00;99627.44;1732716;81;21055;-61
2021/11/05 07:36:22;;;;;;;62.20;30.12;;;;;;;13.24;100.00;99643.36;1745513;81;20985;-62
2021/11/05 07:38:49;;;;;;;51.13;26.87;;;;;;;13.27;100.00;99637.18;1754939;81;21515;-63
2021/11/05 07:41:19;;;;;;;53.78;27.67;;;;;;;13.30;100.00;99630.97;1742436;81;21347;-62
2021/11/05 07:43:47;;;;;;;45.48;27.50;;;;;;;13.32;100.00;99633.40;1770247;81;20993;-63
2021/11/05 07:46:14;;;;;;;54.83;28.20;;;;;;;13.34;99.78;99630.52;1765113;81;21486;-63
2021/11/05 07:48:40;;;;;;;49.55;29.92;;;;;;;13.34;99.72;99630.52;1770262;81;21029;-64
2021/11/05 07:51:06;;;;;;;53.63;30.43;;;;;;;13.36;99.71;99648.98;1770400;81;21108;-63
2021/11/05 07:53:33;;;;;;;54.38;29.05;;;;;;;13.40;99.58;99656.05;1764755;81;21001;-63
2021/11/05 07:55:59;;;;;;;55.63;28.55;;;;;;;13.42;99.54;99653.77;1729291;81;21060;-64
2021/11/05 07:58:25;;;;;;;51.10;28.05;;;;;;;13.45;99.33;99643.39;1741071;81;21556;-65
2021/11/05 08:00:52;;;;;;;57.65;30.62;;;;;;;13.47;99.12;99634.75;1746000;81;21001;-63
2021/11/05 08:03:18;;;;;;;47.43;28.27;;;;;;;13.47;99.01;99635.57;1736941;81;21195;-63
2021/11/05 08:05:45;;;;;;;55.08;31.17;;;;;;;13.51;98.88;99645.40;1740588;81;21652;-62
2021/11/05 08:08:11;;;;;;;59.38;29.87;;;;;;;13.53;98.82;99658.34;1757053;81;21473;-63
2021/11/05 08:10:39;;;;;;;51.92;29.98;;;;;;;13.53;98.54;99654.19;1770382;81;21025;-64
2021/11/05 08:13:06;;;;;;;57.78;30.95;;;;;;;13.54;98.48;99679.91;1770440;81;21005;-63
2021/11/05 08:15:32;;;;;;;47.85;29.77;;;;;;;13.56;98.33;99683.95;1746749;81;21521;-64
2021/11/05 08:18:00;;;;;;;63.58;32.13;;;;;;;13.56;98.29;99681.78;1740736;81;21032;-63
2021/11/05 08:20:26;;;;;;;51.37;30.08;;;;;;;13.57;98.16;99678.67;1741978;81;21021;-64
2021/11/05 08:22:53;;;;;;;55.80;30.55;;;;;;;13.61;98.01;99680.20;1759576;81;21036;-63
2021/11/05 08:25:20;;;;;;;51.42;28.20;;;;;;;13.63;97.99;99680.65;1765387;81;21025;-64
2021/11/05 08:27:47;;;;;;;57.35;30.70;;;;;;;13.66;97.91;99684.16;1767191;81;21107;-63
2021/11/05 08:30:20;;;;;;;47.25;29.72;;;;;;;13.68;97.73;99673.53;1749237;81;21008;-64
2021/11/05 08:32:48;;;;;;;50.92;29.15;;;;;;;13.72;97.64;99668.13;1753027;81;21071;-64
2021/11/05 08:35:14;;;;;;;54.35;32.83;;;;;;;13.74;97.51;99663.07;1754101;81;21056;-64
2021/11/05 08:37:42;;;;;;;55.40;31.15;;;;;;;13.77;97.36;99676.83;1744350;81;21003;-64
2021/11/05 08:40:10;;;;;;;49.98;28.83;;;;;;;13.79;97.02;99662.87;1740082;81;21132;-64
2021/11/05 08:42:37;;;;;;;54.23;28.60;;;;;;;13.81;96.83;99652.83;1740250;81;20983;-64
2021/11/05 08:45:07;;;;;;;56.05;30.00;;;;;;;13.83;96.69;99657.47;1738822;81;21004;-64
2021/11/05 08:47:36;;;;;;;52.50;28.87;;;;;;;13.84;96.69;99643.28;1736556;81;21043;-64
2021/11/05 08:50:06;;;;;;;45.78;28.30;;;;;;;13.90;96.61;99644.45;1715751;81;21028;-64
2021/11/05 08:52:32;;;;;;;47.35;28.17;;;;;;;13.93;96.54;99655.67;1749534;81;21769;-64
2021/11/05 08:55:04;;;;;;;46.13;28.47;;;;;;;13.97;96.25;99646.90;1750117;81;21004;-64
2021/11/05 08:57:28;;;;;;;49.27;28.55;;;;;;;13.99;95.89;99643.78;1749518;81;21023;-63
2021/11/05 08:59:55;;;;;;;50.48;28.70;;;;;;;14.00;95.81;99632.36;1718082;81;21063;-64
2021/11/05 09:02:21;;;;;;;49.00;29.37;;;;;;;14.06;95.75;99628.00;1750446;81;21031;-64
2021/11/05 09:04:48;;;;;;;45.03;27.95;;;;;;;14.11;95.70;99628.61;1718903;81;21214;-65
2021/11/05 09:07:14;;;;;;;47.80;27.40;;;;;;;14.20;95.74;99624.92;1742192;81;21058;-64
2021/11/05 09:09:42;;;;;;;46.08;27.00;;;;;;;14.29;95.56;99641.47;1727296;81;21067;-64
2021/11/05 09:12:09;;;;;;;52.45;27.35;;;;;;;14.35;95.15;99657.53;1727214;81;21019;-64
2021/11/05 09:14:35;;;;;;;48.00;28.42;;;;;;;14.43;94.91;99659.18;1743167;81;21031;-65
2021/11/05 09:17:02;;;;;;;48.35;28.55;;;;;;;14.49;94.66;99656.41;1735490;81;21136;-64
2021/11/05 09:19:29;;;;;;;47.62;27.02;;;;;;;14.55;94.26;99655.02;1708679;81;21532;-64
2021/11/05 09:21:56;;;;;;;47.60;28.02;;;;;;;14.57;93.70;99659.66;1704754;81;21039;-65
2021/11/05 09:24:22;;;;;;;44.95;26.10;;;;;;;14.53;93.32;99645.45;1736214;81;21570;-64
2021/11/05 09:26:48;;;;;;;55.15;28.73;;;;;;;14.54;93.22;99649.83;1709114;81;21027;-65
2021/11/05 09:29:17;;;;;;;40.95;26.85;;;;;;;14.53;93.09;99639.34;1737071;81;21128;-65
2021/11/05 09:31:43;;;;;;;51.65;28.35;;;;;;;14.56;92.89;99641.98;1706307;81;21037;-65
2021/11/05 09:34:10;;;;;;;42.45;26.95;;;;;;;14.59;92.74;99644.88;1739895;81;21457;-64
2021/11/05 09:36:36;;;;;;;38.13;26.35;;;;;;;14.65;92.47;99646.05;1740325;81;21491;-65
2021/11/05 09:39:04;;;;;;;43.70;29.15;;;;;;;14.66;92.12;99632.40;1738076;81;20988;-65
2021/11/05 09:41:30;;;;;;;44.60;28.67;;;;;;;14.68;91.86;99626.75;1739721;81;21121;-65
2021/11/05 09:43:56;;;;;;;51.45;30.10;;;;;;;14.68;91.35;99632.30;1737200;81;21460;-65
2021/11/05 09:46:23;;;;;;;52.17;30.70;;;;;;;14.65;91.13;99628.02;1738624;81;21063;-65
2021/11/05 09:48:49;;;;;;;48.80;27.98;;;;;;;14.67;91.24;99622.95;1740131;81;21051;-66
2021/11/05 09:51:15;;;;;;;43.23;26.97;;;;;;;14.70;91.17;99625.02;1737086;81;21522;-65
2021/11/05 09:53:42;;;;;;;44.88;27.77;;;;;;;14.78;91.09;99604.69;1736777;81;21211;-64
2021/11/05 09:56:13;;;;;;;44.88;26.82;;;;;;;14.87;90.95;99596.28;1737730;81;21501;-64
2021/11/05 09:58:41;;;;;;;50.63;28.62;;;;;;;14.99;91.04;99587.14;1706334;81;21508;-65
2021/11/05 10:01:08;;;;;;;44.38;26.45;;;;;;;15.15;90.95;99591.38;1753702;81;20980;-65
2021/11/05 10:03:35;;;;;;;40.85;26.55;;;;;;;15.31;90.42;99603.15;1728134;81;21000;-66
2021/11/05 10:06:08;;;;;;;44.48;25.37;;;;;;;15.45;89.67;99608.33;1723712;81;21495;-64
2021/11/05 10:08:35;;;;;;;41.70;25.17;;;;;;;15.56;89.43;99619.16;1692770;81;21476;-65
2021/11/05 10:11:25;;;;;;;39.40;24.50;;;;;;;15.68;88.84;99607.78;1723699;81;21074;-65
2021/11/05 10:13:54;;;;;;;35.38;24.45;;;;;;;15.78;88.30;99613.44;1723650;81;21587;-65
2021/11/05 10:16:21;;;;;;;41.83;24.23;;;;;;;15.89;87.45;99617.31;1692719;81;21011;-64
2021/11/05 10:19:06;;;;;;;41.58;24.02;;;;;;;15.94;86.74;99610.11;1723894;81;21304;-64
2021/11/05 10:21:43;;;;;;;37.03;24.37;;;;;;;15.98;86.13;99623.29;1723559;81;21003;-64
2021/11/05 10:24:15;;;;;;;39.10;22.82;;;;;;;16.00;85.12;99625.96;1723724;81;21046;-65
2021/11/05 10:26:44;;;;;;;37.78;22.42;;;;;;;15.98;84.63;99634.41;1695079;81;47535;-65
2021/11/05 10:29:30;;;;;;;36.75;23.67;;;;;;;15.91;84.00;99625.29;1728830;81;21328;-65
2021/11/05 10:32:06;;;;;;;39.58;24.02;;;;;;;15.82;83.77;99615.72;1723897;81;21027;-65
2021/11/05 10:34:53;;;;;;;37.95;22.75;;;;;;;15.73;83.71;99611.69;1753264;81;21513;-65
2021/11/05 10:37:32;;;;;;;39.20;23.12;;;;;;;15.66;83.78;99597.63;1753225;81;20977;-63
2021/11/05 10:39:59;;;;;;;35.60;21.50;;;;;;;15.57;83.86;99579.11;1753343;81;21015;-65
2021/11/05 10:42:35;;;;;;;40.67;23.38;;;;;;;15.51;83.98;99592.21;1753435;81;21089;-64
2021/11/05 10:45:24;;;;;;;33.85;21.30;;;;;;;15.47;83.98;99614.34;1753338;81;21127;-63
2021/11/05 10:47:58;;;;;;;37.55;22.73;;;;;;;15.46;84.04;99608.55;1753394;81;21007;-65
2021/11/05 10:50:53;;;;;;;35.63;22.35;;;;;;;15.45;84.20;99580.56;1753242;81;20983;-62
2021/11/05 10:53:22;;;;;;;36.95;21.57;;;;;;;15.44;84.42;99574.20;1697464;81;21439;-63
2021/11/05 10:56:01;;;;;;;36.55;22.15;;;;;;;15.49;84.69;99571.74;1753409;81;21027;-62
2021/11/05 10:58:40;;;;;;;35.25;21.02;;;;;;;15.58;84.76;99582.70;1719633;81;21863;-63
2021/11/05 11:01:12;;;;;;;35.35;19.27;;;;;;;15.66;84.75;99591.47;1721001;81;21027;-63
2021/11/05 11:03:53;;;;;;;33.70;21.40;;;;;;;15.75;84.58;99598.27;1753103;81;21488;-64
2021/11/05 11:06:37;;;;;;;35.33;21.40;;;;;;;15.82;84.20;99598.48;1752999;81;21559;-65
2021/11/05 11:09:14;;;;;;;34.35;21.30;;;;;;;15.88;83.76;99600.40;1713389;81;21025;-65
2021/11/05 11:11:49;;;;;;;39.85;21.30;;;;;;;15.88;83.27;99595.45;1753047;81;21036;-65
2021/11/05 11:14:22;;;;;;;37.25;21.82;;;;;;;15.87;83.14;99600.75;1681973;82;21366;-65